Time,TemperatureF,DewpointF,PressureIn,WindDirection,WindDirectionDegrees,WindSpeedMPH,WindSpeedGustMPH,Humidity,HourlyPrecipIn,Conditions,Clouds,dailyrainin,SolarRadiationWatts/m^2,SoftwareType,DateUTC
2013-05-11 00:00:00,43.0,-99.9,-100.00,NW,315,4.0,-999.0,-999,-99.99,,,-99.99,0.000000,,2013-05-11 04:00:00,
2013-05-11 00:43:00,43.0,-99.9,-100.00,NW,315,4.0,-999.0,-999,-99.99,,,-99.99,0.000000,,2013-05-11 04:43:00,
2013-05-11 00:52:00,43.0,-99.9,-100.00,NW,315,4.0,-999.0,-999,-99.99,,,-99.99,0.000000,,2013-05-11 04:52:00,
2013-05-11 02:00:00,43.0,-99.9,-100.00,WNW,292,5.0,-999.0,-999,-99.99,,,-99.99,0.000000,,2013-05-11 06:00:00,
2013-05-11 02:42:00,43.0,-99.9,-100.00,WNW,292,5.0,-999.0,-999,-99.99,,,-99.99,0.000000,,2013-05-11 06:42:00,
2013-05-11 02:53:00,43.0,-99.9,-100.00,WNW,292,5.0,-999.0,-999,-99.99,,,-99.99,0.000000,,2013-05-11 06:53:00,
2013-05-11 03:00:00,42.0,-99.9,-100.00,WNW,292,5.0,-999.0,-999,-99.99,,,-99.99,0.000000,,2013-05-11 07:00:00,
2013-05-11 03:42:00,42.0,-99.9,-100.00,WNW,292,5.0,-999.0,-999,-99.99,,,-99.99,0.000000,,2013-05-11 07:42:00,
2013-05-11 03:52:00,42.0,-99.9,-100.00,WNW,292,5.0,-999.0,-999,-99.99,,,-99.99,0.000000,,2013-05-11 07:52:00,
2013-05-11 04:00:00,42.0,-99.9,-100.00,WNW,292,5.0,-999.0,-999,-99.99,,,-99.99,0.000000,,2013-05-11 08:00:00,
2013-05-11 04:43:00,42.0,-99.9,-100.00,WNW,292,5.0,-999.0,-999,-99.99,,,-99.99,0.000000,,2013-05-11 08:43:00,
2013-05-11 04:52:00,42.0,-99.9,-100.00,WNW,292,5.0,-999.0,-999,-99.99,,,-99.99,0.000000,,2013-05-11 08:52:00,
2013-05-11 06:00:00,41.0,-99.9,-100.00,West,270,3.0,-999.0,-999,-99.99,,,-99.99,0.000000,,2013-05-11 10:00:00,
2013-05-11 06:42:00,41.0,-99.9,-100.00,West,270,3.0,-999.0,-999,-99.99,,,-99.99,0.000000,,2013-05-11 10:42:00,
2013-05-11 06:53:00,41.0,-99.9,-100.00,West,270,3.0,-999.0,-999,-99.99,,,-99.99,0.000000,,2013-05-11 10:53:00,
2013-05-11 07:00:00,42.0,-99.9,-100.00,West,270,3.0,-999.0,-999,-99.99,,,-99.99,2.320000,,2013-05-11 11:00:00,
2013-05-11 07:42:00,42.0,-99.9,-100.00,West,270,3.0,-999.0,-999,-99.99,,,-99.99,2.320000,,2013-05-11 11:42:00,
2013-05-11 07:52:00,42.0,-99.9,-100.00,West,270,3.0,-999.0,-999,-99.99,,,-99.99,2.320000,,2013-05-11 11:52:00,
2013-05-11 08:00:00,42.0,-99.9,-100.00,West,270,4.0,-999.0,-999,-99.99,,,-99.99,22.040001,,2013-05-11 12:00:00,
2013-05-11 08:42:00,42.0,-99.9,-100.00,West,270,4.0,-999.0,-999,-99.99,,,-99.99,22.040001,,2013-05-11 12:42:00,
2013-05-11 08:52:00,42.0,-99.9,-100.00,West,270,4.0,-999.0,-999,-99.99,,,-99.99,22.040001,,2013-05-11 12:52:00,
2013-05-11 09:00:00,43.0,-99.9,-100.00,West,270,4.0,-999.0,-999,-99.99,,,-99.99,73.080002,,2013-05-11 13:00:00,
2013-05-11 09:42:00,43.0,-99.9,-100.00,West,270,4.0,-999.0,-999,-99.99,,,-99.99,73.080002,,2013-05-11 13:42:00,
2013-05-11 09:52:00,43.0,-99.9,-100.00,West,270,4.0,-999.0,-999,-99.99,,,-99.99,73.080002,,2013-05-11 13:52:00,
2013-05-11 10:00:00,44.0,44.0,-100.00,WSW,247,5.0,-999.0,103,-99.99,,,-99.99,114.839996,,2013-05-11 14:00:00,
2013-05-11 10:42:00,44.0,44.0,-100.00,WSW,247,5.0,-999.0,103,-99.99,,,-99.99,114.839996,,2013-05-11 14:42:00,
2013-05-11 10:52:00,44.0,44.0,-100.00,WSW,247,5.0,-999.0,103,-99.99,,,-99.99,114.839996,,2013-05-11 14:52:00,
2013-05-11 12:00:00,49.0,44.0,-100.00,SSW,202,7.0,-999.0,81,-99.99,,,-99.99,308.559998,,2013-05-11 16:00:00,
2013-05-11 12:42:00,49.0,44.0,-100.00,SSW,202,7.0,-999.0,81,-99.99,,,-99.99,308.559998,,2013-05-11 16:42:00,
2013-05-11 12:53:00,49.0,44.0,-100.00,SSW,202,7.0,-999.0,81,-99.99,,,-99.99,308.559998,,2013-05-11 16:53:00,
2013-05-11 13:00:00,52.0,44.0,-100.00,SSW,202,8.0,-999.0,75,-99.99,,,-99.99,410.640015,,2013-05-11 17:00:00,
2013-05-11 13:42:00,52.0,44.0,-100.00,SSW,202,8.0,-999.0,75,-99.99,,,-99.99,410.640015,,2013-05-11 17:42:00,
2013-05-11 13:52:00,52.0,44.0,-100.00,SSW,202,8.0,-999.0,75,-99.99,,,-99.99,410.640015,,2013-05-11 17:52:00,
2013-05-11 14:00:00,53.0,45.0,-100.00,SSW,202,7.0,-999.0,74,-99.99,,,-99.99,121.800003,,2013-05-11 18:00:00,
2013-05-11 14:42:00,53.0,45.0,-100.00,SSW,202,7.0,-999.0,74,-99.99,,,-99.99,121.800003,,2013-05-11 18:42:00,
2013-05-11 14:52:00,53.0,45.0,-100.00,SSW,202,7.0,-999.0,74,-99.99,,,-99.99,121.800003,,2013-05-11 18:52:00,
2013-05-11 15:00:00,52.0,47.0,-100.00,WSW,247,8.0,-999.0,83,0.02,,,-99.99,147.320007,,2013-05-11 19:00:00,
2013-05-11 15:42:00,52.0,47.0,-100.00,WSW,247,8.0,-999.0,83,0.02,,,-99.99,147.320007,,2013-05-11 19:42:00,
2013-05-11 15:53:00,52.0,47.0,-100.00,WSW,247,8.0,-999.0,83,0.02,,,-99.99,147.320007,,2013-05-11 19:53:00,
2013-05-11 17:00:00,44.0,36.0,-100.00,NNW,337,11.0,-999.0,72,-99.99,,,-99.99,357.279999,,2013-05-11 21:00:00,
2013-05-11 17:43:00,44.0,36.0,-100.00,NNW,337,11.0,-999.0,72,-99.99,,,-99.99,357.279999,,2013-05-11 21:43:00,
2013-05-11 17:53:00,44.0,36.0,-100.00,NNW,337,11.0,-999.0,72,-99.99,,,-99.99,357.279999,,2013-05-11 21:53:00,
2013-05-11 19:00:00,47.0,35.0,-100.00,NNW,337,9.0,-999.0,63,-99.99,,,-99.99,221.559998,,2013-05-11 23:00:00,
2013-05-11 19:42:00,47.0,35.0,-100.00,NNW,337,9.0,-999.0,63,-99.99,,,-99.99,221.559998,,2013-05-11 23:42:00,
2013-05-11 19:52:00,47.0,35.0,-100.00,NNW,337,9.0,-999.0,63,-99.99,,,-99.99,221.559998,,2013-05-11 23:52:00,
2013-05-11 22:00:00,40.0,34.0,-100.00,NW,315,1.0,-999.0,79,-99.99,,,-99.99,0.000000,,2013-05-12 02:00:00,
2013-05-11 22:42:00,40.0,34.0,-100.00,NW,315,1.0,-999.0,79,-99.99,,,-99.99,0.000000,,2013-05-12 02:42:00,
2013-05-11 22:52:00,40.0,34.0,-100.00,NW,315,1.0,-999.0,79,-99.99,,,-99.99,0.000000,,2013-05-12 02:52:00,